createdAt,value
2022-08-07T00:01:44.272Z,19.22
2022-08-07T00:04:24.416Z,19.19
2022-08-07T00:06:51.551Z,19.04
2022-08-07T00:09:21.383Z,18.97
2022-08-07T00:11:56.069Z,18.92
2022-08-07T00:14:25.437Z,18.95
2022-08-07T00:16:56.124Z,18.97
2022-08-07T00:19:26.133Z,18.94
2022-08-07T00:22:03.230Z,18.81
2022-08-07T00:24:31.728Z,18.77
2022-08-07T00:27:06.088Z,18.74
2022-08-07T00:29:33.872Z,18.72
2022-08-07T00:32:03.429Z,18.73
2022-08-07T00:34:32.021Z,18.79
2022-08-07T00:36:58.554Z,18.68
2022-08-07T00:39:25.632Z,18.64
2022-08-07T00:41:53.871Z,18.57
2022-08-07T00:44:28.861Z,18.57
2022-08-07T00:46:55.027Z,18.53
2022-08-07T00:49:24.859Z,18.50
2022-08-07T00:52:07.543Z,18.49
2022-08-07T00:54:36.117Z,18.48
2022-08-07T00:57:06.881Z,18.53
2022-08-07T00:59:36.187Z,18.56
2022-08-07T01:02:02.392Z,18.52
2022-08-07T01:04:30.269Z,18.50
2022-08-07T01:06:56.631Z,18.44
2022-08-07T01:10:06.322Z,18.51
2022-08-07T01:12:29.712Z,18.40
2022-08-07T01:14:57.108Z,18.46
2022-08-07T01:17:28.067Z,18.43
2022-08-07T01:19:55.136Z,18.45
2022-08-07T01:22:22.838Z,18.37
2022-08-07T01:24:55.411Z,18.48
2022-08-07T01:27:22.087Z,18.39
2022-08-07T01:29:48.249Z,18.29
2022-08-07T01:32:16.844Z,18.22
2022-08-07T01:34:47.311Z,18.21
2022-08-07T01:37:15.353Z,18.16
2022-08-07T01:39:46.446Z,18.17
2022-08-07T01:42:38.538Z,18.10
2022-08-07T01:44:59.459Z,17.93
2022-08-07T01:48:29.379Z,17.87
2022-08-07T01:50:12.692Z,17.83
2022-08-07T01:52:38.862Z,17.85
2022-08-07T01:55:07.030Z,17.82
2022-08-07T01:57:34.025Z,17.80
2022-08-07T02:00:19.355Z,17.81
2022-08-07T02:03:18.435Z,17.81
2022-08-07T02:05:43.321Z,17.80
2022-08-07T02:08:14.853Z,17.90
2022-08-07T02:10:42.312Z,18.00
2022-08-07T02:13:08.660Z,18.04
2022-08-07T02:15:35.617Z,18.15
2022-08-07T02:18:01.804Z,18.25
2022-08-07T02:20:27.998Z,18.33
2022-08-07T02:22:54.934Z,18.43
2022-08-07T02:25:21.340Z,18.44
2022-08-07T02:28:07.521Z,18.44
2022-08-07T02:30:37.580Z,18.42
2022-08-07T02:33:09.475Z,18.41
2022-08-07T02:36:29.323Z,18.41
2022-08-07T02:38:22.880Z,18.50
2022-08-07T02:40:56.074Z,18.62
2022-08-07T02:43:22.337Z,18.73
2022-08-07T02:46:00.434Z,18.82
2022-08-07T02:48:28.422Z,18.81
2022-08-07T02:50:54.581Z,18.78
2022-08-07T02:53:21.242Z,18.63
2022-08-07T02:56:03.710Z,18.63
2022-08-07T02:58:33.325Z,18.53
2022-08-07T03:00:59.910Z,18.56
2022-08-07T03:03:26.146Z,18.46
2022-08-07T03:06:08.277Z,18.11
2022-08-07T03:08:42.842Z,17.83
2022-08-07T03:11:09.413Z,17.63
2022-08-07T03:13:38.677Z,17.48
2022-08-07T03:16:05.144Z,17.13
2022-08-07T03:18:34.602Z,16.95
2022-08-07T03:21:02.307Z,16.85
2022-08-07T03:23:33.712Z,16.71
2022-08-07T03:26:21.078Z,16.66
2022-08-07T03:28:49.831Z,16.57
2022-08-07T03:31:17.827Z,16.60
2022-08-07T03:33:44.366Z,16.55
2022-08-07T03:36:10.526Z,16.52
2022-08-07T03:38:36.728Z,16.46
2022-08-07T03:41:02.920Z,16.45
2022-08-07T03:43:32.393Z,16.39
2022-08-07T03:45:59.155Z,16.36
2022-08-07T03:48:25.941Z,16.38
2022-08-07T03:50:55.873Z,16.37
2022-08-07T03:54:00.564Z,16.27
2022-08-07T03:56:10.321Z,16.16
2022-08-07T03:59:09.636Z,16.12
2022-08-07T04:01:26.155Z,15.99
2022-08-07T04:03:55.019Z,15.92
2022-08-07T04:06:37.008Z,15.82
2022-08-07T04:09:04.690Z,15.75
2022-08-07T04:12:24.612Z,15.68
2022-08-07T04:14:37.562Z,15.54
2022-08-07T04:17:03.940Z,15.50
2022-08-07T04:19:34.117Z,15.39
2022-08-07T04:22:17.754Z,15.35
2022-08-07T04:24:44.121Z,15.37
2022-08-07T04:27:15.368Z,15.34
2022-08-07T04:30:02.446Z,15.27
2022-08-07T04:32:34.682Z,15.32
2022-08-07T04:35:01.260Z,15.36
2022-08-07T04:37:30.227Z,15.49
2022-08-07T04:40:16.372Z,15.44
2022-08-07T04:42:45.851Z,15.48
2022-08-07T04:45:44.433Z,15.49
2022-08-07T04:48:10.844Z,15.57
2022-08-07T04:50:37.239Z,15.55
2022-08-07T04:53:05.769Z,15.48
2022-08-07T04:58:14.419Z,15.53
2022-08-07T04:58:38.919Z,15.56
2022-08-07T05:01:13.533Z,15.52
2022-08-07T05:04:06.469Z,15.57
2022-08-07T05:06:43.365Z,15.61
2022-08-07T05:09:10.149Z,15.71
2022-08-07T05:11:57.618Z,15.76
2022-08-07T05:14:55.986Z,15.85
2022-08-07T05:17:11.844Z,15.93
2022-08-07T05:19:44.767Z,15.92
2022-08-07T05:22:11.609Z,15.95
2022-08-07T05:24:39.570Z,16.01
2022-08-07T05:27:07.898Z,16.03
2022-08-07T05:29:51.218Z,16.14
2022-08-07T05:32:18.508Z,16.19
2022-08-07T05:34:45.998Z,16.24
2022-08-07T05:37:14.865Z,16.28
2022-08-07T05:40:17.545Z,16.33
2022-08-07T05:42:37.755Z,16.39
2022-08-07T05:45:26.313Z,16.56
2022-08-07T05:48:01.887Z,16.82
2022-08-07T05:50:29.159Z,17.15
2022-08-07T05:52:55.603Z,17.36
2022-08-07T05:55:21.797Z,17.65
2022-08-07T05:57:49.109Z,18.01
2022-08-07T06:00:17.822Z,18.26
2022-08-07T06:02:44.168Z,18.55
2022-08-07T06:05:10.896Z,18.87
2022-08-07T06:08:13.790Z,19.09
2022-08-07T06:10:27.757Z,19.32
2022-08-07T06:12:53.966Z,19.54
2022-08-07T06:15:20.873Z,19.66
2022-08-07T06:17:53.561Z,19.97
2022-08-07T06:20:25.733Z,20.10
2022-08-07T06:23:25.016Z,20.39
2022-08-07T06:25:57.140Z,20.51
2022-08-07T06:28:27.799Z,20.78
2022-08-07T06:30:54.613Z,20.47
2022-08-07T06:33:20.773Z,20.66
2022-08-07T06:36:13.451Z,21.03
2022-08-07T06:38:35.288Z,21.31
2022-08-07T06:41:01.611Z,21.56
2022-08-07T06:43:27.989Z,21.66
2022-08-07T06:46:05.853Z,21.89
2022-08-07T06:48:37.805Z,22.09
2022-08-07T06:51:09.488Z,21.82
2022-08-07T06:55:27.330Z,22.06
2022-08-07T06:56:21.938Z,22.19
2022-08-07T07:00:13.124Z,22.31
2022-08-07T07:01:43.836Z,22.30
2022-08-07T07:04:32.576Z,22.18
2022-08-07T07:07:00.904Z,22.39
2022-08-07T07:09:31.336Z,22.32
2022-08-07T07:12:08.283Z,22.43
2022-08-07T07:14:40.349Z,22.43
2022-08-07T07:17:06.771Z,22.86
2022-08-07T07:19:57.428Z,23.10
2022-08-07T07:22:36.533Z,23.26
2022-08-07T07:25:26.205Z,23.37
2022-08-07T07:28:02.473Z,23.25
2022-08-07T07:30:38.745Z,23.16
2022-08-07T07:33:06.374Z,23.38
2022-08-07T07:35:34.046Z,23.54
2022-08-07T07:38:21.347Z,23.33
2022-08-07T07:40:47.688Z,23.43
2022-08-07T07:43:18.612Z,23.21
2022-08-07T07:48:35.818Z,23.42
2022-08-07T07:51:02.596Z,23.58
2022-08-07T07:53:35.853Z,23.65
2022-08-07T07:56:02.019Z,23.84
2022-08-07T07:58:30.252Z,24.12
2022-08-07T08:00:56.513Z,24.29
2022-08-07T08:04:06.496Z,24.57
2022-08-07T08:06:11.540Z,24.63
2022-08-07T08:08:41.840Z,24.53
2022-08-07T08:11:09.232Z,24.54
2022-08-07T08:13:53.261Z,24.87
2022-08-07T08:16:25.057Z,25.05
2022-08-07T08:18:51.607Z,25.22
2022-08-07T08:21:17.805Z,25.04
2022-08-07T08:23:43.963Z,24.85
2022-08-07T08:26:12.342Z,24.92
2022-08-07T08:28:39.200Z,25.16
2022-08-07T08:31:14.736Z,25.08
2022-08-07T08:33:46.971Z,25.05
2022-08-07T08:36:15.928Z,25.63
2022-08-07T08:38:42.120Z,25.77
2022-08-07T08:41:10.769Z,25.44
2022-08-07T08:43:42.865Z,25.47
2022-08-07T08:46:22.194Z,25.33
2022-08-07T08:48:51.602Z,25.39
2022-08-07T08:51:26.337Z,25.65
2022-08-07T08:54:03.918Z,25.52
2022-08-07T08:56:30.078Z,25.74
2022-08-07T08:58:56.323Z,25.70
2022-08-07T09:01:22.546Z,25.53
2022-08-07T09:03:55.675Z,25.73
2022-08-07T09:06:22.954Z,25.73
2022-08-07T09:08:52.997Z,26.02
2022-08-07T09:11:24.967Z,26.16
2022-08-07T09:14:05.348Z,25.97
2022-08-07T09:16:31.530Z,26.10
2022-08-07T09:18:58.399Z,26.39
2022-08-07T09:21:34.070Z,26.25
2022-08-07T09:24:30.860Z,26.39
2022-08-07T09:26:57.446Z,26.54
2022-08-07T09:30:05.421Z,26.52
2022-08-07T09:32:17.322Z,26.91
2022-08-07T09:34:53.633Z,26.84
2022-08-07T09:37:47.949Z,27.15
2022-08-07T09:40:11.740Z,27.43
2022-08-07T09:42:44.044Z,27.64
2022-08-07T09:47:24.967Z,27.71
2022-08-07T09:48:03.699Z,27.76
2022-08-07T09:50:32.470Z,28.02
2022-08-07T09:52:58.655Z,28.14
2022-08-07T09:55:29.786Z,28.15
2022-08-07T09:58:13.187Z,27.64
2022-08-07T10:00:39.351Z,27.71
2022-08-07T10:03:08.357Z,27.47
2022-08-07T10:05:59.637Z,27.58
2022-08-07T10:08:28.229Z,27.93
2022-08-07T10:11:16.499Z,28.18
2022-08-07T10:14:00.181Z,28.26
2022-08-07T10:16:27.875Z,28.20
2022-08-07T10:18:54.096Z,28.05
2022-08-07T10:22:12.231Z,27.81
2022-08-07T10:24:08.413Z,27.45
2022-08-07T10:26:34.998Z,27.73
2022-08-07T10:29:01.137Z,27.73
2022-08-07T10:31:28.186Z,27.89
2022-08-07T10:34:14.213Z,27.80
2022-08-07T10:36:45.576Z,28.00
2022-08-07T10:39:14.031Z,28.16
2022-08-07T10:41:46.968Z,28.03
2022-08-07T10:44:19.295Z,27.90
2022-08-07T10:46:54.736Z,27.79
2022-08-07T10:49:45.235Z,27.99
2022-08-07T10:52:13.321Z,27.95
2022-08-07T10:54:40.035Z,28.26
2022-08-07T10:57:06.218Z,28.41
2022-08-07T10:59:37.093Z,28.28
2022-08-07T11:02:12.034Z,28.04
2022-08-07T11:04:38.844Z,28.15
2022-08-07T11:07:05.373Z,28.02
2022-08-07T11:10:10.033Z,28.14
2022-08-07T11:12:37.205Z,28.45
2022-08-07T11:15:03.383Z,28.47
2022-08-07T11:17:43.217Z,28.63
2022-08-07T11:20:11.809Z,28.66
2022-08-07T11:22:45.908Z,28.36
2022-08-07T11:25:12.507Z,28.44
2022-08-07T11:28:02.476Z,28.18
2022-08-07T11:30:39.124Z,28.30
2022-08-07T11:33:14.163Z,28.64
2022-08-07T11:36:00.382Z,28.25
2022-08-07T11:38:28.371Z,28.48
2022-08-07T11:40:54.672Z,28.15
2022-08-07T11:43:29.789Z,28.39
2022-08-07T11:46:08.490Z,28.99
2022-08-07T11:48:35.498Z,29.21
2022-08-07T11:51:03.696Z,29.31
2022-08-07T11:53:29.956Z,29.11
2022-08-07T11:56:09.527Z,29.09
2022-08-07T11:58:49.849Z,29.06
2022-08-07T12:01:20.412Z,28.95
2022-08-07T12:03:48.402Z,29.22
2022-08-07T12:06:36.256Z,29.29
2022-08-07T12:09:00.983Z,29.64
2022-08-07T12:11:32.251Z,29.20
2022-08-07T12:13:58.830Z,29.06
2022-08-07T12:16:28.840Z,29.24
2022-08-07T12:18:56.951Z,29.05
2022-08-07T12:22:35.814Z,29.30
2022-08-07T12:24:36.874Z,29.42
2022-08-07T12:26:55.466Z,29.54
2022-08-07T12:29:38.071Z,29.55
2022-08-07T12:32:06.320Z,29.79
2022-08-07T12:34:33.967Z,29.92
2022-08-07T12:37:00.268Z,29.85
2022-08-07T12:39:42.917Z,29.40
2022-08-07T12:42:13.166Z,29.46
2022-08-07T12:44:39.575Z,29.44
2022-08-07T12:47:09.219Z,29.44
2022-08-07T12:49:44.790Z,29.25
2022-08-07T12:52:27.859Z,29.32
2022-08-07T12:54:54.622Z,29.66
2022-08-07T12:57:22.235Z,30.03
2022-08-07T12:59:55.220Z,29.99
2022-08-07T13:02:21.869Z,29.89
2022-08-07T13:05:01.241Z,29.69
2022-08-07T13:08:14.184Z,29.30
2022-08-07T13:10:37.161Z,29.38
2022-08-07T13:13:00.656Z,29.19
2022-08-07T13:15:31.585Z,29.08
2022-08-07T13:17:59.527Z,29.31
2022-08-07T13:20:27.759Z,29.52
2022-08-07T13:22:55.317Z,29.75
2022-08-07T13:25:29.008Z,29.65
2022-08-07T13:28:13.051Z,29.44
2022-08-07T13:30:44.146Z,29.58
2022-08-07T13:34:34.616Z,29.55
2022-08-07T13:36:07.654Z,29.71
2022-08-07T13:38:33.829Z,29.71
2022-08-07T13:41:00.016Z,30.01
2022-08-07T13:43:26.231Z,30.13
2022-08-07T13:46:11.533Z,30.25
2022-08-07T13:48:39.955Z,30.20
2022-08-07T13:51:26.926Z,30.08
2022-08-07T13:54:00.569Z,30.40
2022-08-07T13:56:35.912Z,30.24
2022-08-07T13:59:12.234Z,29.90
2022-08-07T14:01:51.363Z,29.82
2022-08-07T14:04:24.802Z,30.12
2022-08-07T14:07:01.500Z,30.02
2022-08-07T14:10:02.858Z,29.92
2022-08-07T14:12:13.826Z,30.45
2022-08-07T14:14:39.995Z,30.48
2022-08-07T14:17:32.307Z,30.42
2022-08-07T14:20:40.040Z,30.04
2022-08-07T14:22:39.213Z,30.11
2022-08-07T14:25:07.073Z,30.36
2022-08-07T14:28:10.895Z,30.25
2022-08-07T14:30:32.808Z,30.17
2022-08-07T14:32:59.481Z,30.12
2022-08-07T14:35:43.207Z,30.19
2022-08-07T14:38:26.762Z,30.59
2022-08-07T14:40:57.362Z,30.66
2022-08-07T14:43:55.486Z,30.71
2022-08-07T14:46:10.400Z,31.11
2022-08-07T14:48:36.542Z,30.89
2022-08-07T14:51:02.696Z,30.94
2022-08-07T14:54:03.802Z,31.05
2022-08-07T14:59:03.109Z,31.20
2022-08-07T15:01:42.543Z,30.83
2022-08-07T15:04:17.408Z,30.69
2022-08-07T15:06:47.932Z,30.98
2022-08-07T15:12:01.653Z,30.64
2022-08-07T15:14:30.643Z,30.91
2022-08-07T15:22:33.604Z,30.78
2022-08-07T15:25:17.977Z,30.81
2022-08-07T15:30:31.945Z,30.88
2022-08-07T15:33:03.899Z,30.75
2022-08-07T15:36:00.721Z,30.71
2022-08-07T15:43:55.796Z,30.89
2022-08-07T15:54:23.880Z,30.86
2022-08-07T15:56:52.549Z,30.65
2022-08-07T15:59:18.703Z,30.50
2022-08-07T16:01:45.062Z,30.51
2022-08-07T16:04:28.250Z,30.65
2022-08-07T16:06:59.184Z,30.44
2022-08-07T16:09:41.132Z,30.17
2022-08-07T16:12:12.168Z,30.34
2022-08-07T16:14:38.604Z,30.36
2022-08-07T16:17:15.037Z,30.38
2022-08-07T16:19:59.222Z,30.23
2022-08-07T16:22:33.399Z,30.37
2022-08-07T16:25:02.354Z,30.15
2022-08-07T16:27:39.795Z,30.08
2022-08-07T16:30:29.472Z,29.86
2022-08-07T16:32:54.374Z,29.63
2022-08-07T16:35:50.724Z,29.70
2022-08-07T16:38:09.780Z,29.62
2022-08-07T16:40:37.792Z,29.53
2022-08-07T16:43:23.642Z,29.21
2022-08-07T16:47:04.952Z,28.97
2022-08-07T16:50:28.789Z,28.80
2022-08-07T16:52:01.989Z,28.70
2022-08-07T16:54:32.963Z,28.52
2022-08-07T16:56:59.678Z,28.42
2022-08-07T16:59:25.826Z,28.31
2022-08-07T17:02:11.991Z,28.18
2022-08-07T17:04:50.957Z,28.06
2022-08-07T17:07:28.420Z,27.96
2022-08-07T17:10:32.804Z,27.97
2022-08-07T17:12:56.233Z,27.89
2022-08-07T17:15:43.933Z,27.84
2022-08-07T17:18:14.185Z,27.75
2022-08-07T17:20:40.514Z,27.62
2022-08-07T17:23:08.570Z,27.59
2022-08-07T17:25:51.480Z,27.57
2022-08-07T17:28:19.764Z,27.64
2022-08-07T17:30:57.592Z,27.52
2022-08-07T17:34:09.887Z,27.51
2022-08-07T17:36:13.553Z,27.53
2022-08-07T17:38:46.840Z,27.53
2022-08-07T17:42:02.086Z,27.41
2022-08-07T17:44:06.510Z,27.40
2022-08-07T17:46:38.122Z,27.40
2022-08-07T17:49:08.883Z,27.40
2022-08-07T17:51:49.302Z,27.31
2022-08-07T17:54:39.718Z,27.21
2022-08-07T17:57:18.737Z,27.12
2022-08-07T17:59:45.533Z,27.04
2022-08-07T18:02:16.642Z,26.96
2022-08-07T18:04:49.468Z,26.89
2022-08-07T18:07:22.593Z,26.85
2022-08-07T18:10:07.221Z,26.78
2022-08-07T18:12:36.475Z,26.80
2022-08-07T18:15:17.966Z,26.79
2022-08-07T18:18:45.835Z,26.77
2022-08-07T18:21:07.326Z,26.70
2022-08-07T18:23:43.647Z,26.65
2022-08-07T18:26:14.934Z,26.60
2022-08-07T18:28:57.877Z,26.62
2022-08-07T18:31:27.812Z,26.50
2022-08-07T18:34:00.183Z,26.37
2022-08-07T18:40:08.818Z,26.21
2022-08-07T18:45:39.729Z,26.02
2022-08-07T18:47:44.480Z,25.93
2022-08-07T18:50:39.052Z,25.83
2022-08-07T18:53:02.916Z,25.71
2022-08-07T18:55:40.746Z,25.52
2022-08-07T18:58:26.105Z,25.36
2022-08-07T19:00:59.397Z,25.14
2022-08-07T19:03:35.448Z,25.02
2022-08-07T19:06:05.032Z,24.89
2022-08-07T19:08:31.318Z,24.79
2022-08-07T19:10:58.102Z,24.67
2022-08-07T19:13:24.288Z,24.53
2022-08-07T19:16:04.728Z,24.44
2022-08-07T19:18:36.605Z,24.40
2022-08-07T19:21:43.834Z,24.36
2022-08-07T19:24:05.055Z,24.36
2022-08-07T19:26:55.607Z,24.33
2022-08-07T19:30:57.947Z,24.33
2022-08-07T19:32:28.780Z,24.37
2022-08-07T19:34:51.376Z,24.38
2022-08-07T19:40:08.341Z,24.14
2022-08-07T19:42:40.066Z,24.06
2022-08-07T19:45:09.595Z,23.96
2022-08-07T19:47:36.564Z,23.84
2022-08-07T19:50:44.294Z,23.81
2022-08-07T19:52:58.975Z,23.76
2022-08-07T19:55:25.494Z,23.77
2022-08-07T19:58:14.205Z,23.76
2022-08-07T20:00:42.964Z,23.78
2022-08-07T20:03:34.677Z,23.82
2022-08-07T20:06:02.539Z,23.81
2022-08-07T20:08:29.140Z,23.81
2022-08-07T20:10:56.393Z,23.76
2022-08-07T20:13:32.216Z,23.75
2022-08-07T20:15:58.519Z,23.74
2022-08-07T20:18:32.189Z,23.68
2022-08-07T20:20:59.469Z,23.65
2022-08-07T20:23:41.695Z,23.62
2022-08-07T20:26:10.492Z,23.58
2022-08-07T20:28:37.321Z,23.47
2022-08-07T20:31:05.200Z,23.45
2022-08-07T20:33:37.733Z,23.40
2022-08-07T20:36:04.614Z,23.37
2022-08-07T20:38:32.057Z,23.33
2022-08-07T20:40:59.375Z,23.29
2022-08-07T20:43:30.189Z,23.29
2022-08-07T20:46:27.590Z,23.29
2022-08-07T20:49:54.305Z,23.25
2022-08-07T20:51:30.983Z,23.20
2022-08-07T20:54:08.675Z,23.16
2022-08-07T20:56:38.275Z,23.05
2022-08-07T20:59:06.523Z,22.96
2022-08-07T21:01:55.057Z,22.98
2022-08-07T21:04:23.622Z,22.91
2022-08-07T21:06:53.555Z,22.84
2022-08-07T21:09:24.285Z,22.74
2022-08-07T21:11:51.777Z,22.71
2022-08-07T21:14:33.134Z,22.65
2022-08-07T21:18:00.602Z,22.55
2022-08-07T21:19:51.574Z,22.56
2022-08-07T21:22:28.685Z,22.51
2022-08-07T21:24:55.023Z,22.47
2022-08-07T21:27:22.096Z,22.47
2022-08-07T21:29:53.181Z,22.50
2022-08-07T21:32:46.920Z,22.49
2022-08-07T21:35:09.375Z,22.45
2022-08-07T21:37:58.400Z,22.39
2022-08-07T21:40:23.997Z,22.29
2022-08-07T21:42:50.456Z,22.24
2022-08-07T21:46:04.872Z,22.15
2022-08-07T21:48:05.392Z,22.10
2022-08-07T21:50:31.756Z,22.05
2022-08-07T21:52:58.251Z,22.07
2022-08-07T21:55:27.800Z,22.03
2022-08-07T21:57:56.302Z,21.99
2022-08-07T22:00:25.222Z,22.01
2022-08-07T22:02:51.933Z,21.96
2022-08-07T22:05:44.556Z,21.94
2022-08-07T22:08:04.870Z,21.88
2022-08-07T22:10:33.660Z,21.90
2022-08-07T22:13:01.543Z,21.91
2022-08-07T22:16:44.357Z,21.92
2022-08-07T22:18:13.890Z,21.86
2022-08-07T22:20:40.562Z,21.84
2022-08-07T22:23:06.718Z,21.74
2022-08-07T22:25:36.260Z,21.71
2022-08-07T22:28:30.192Z,21.67
2022-08-07T22:30:53.015Z,21.58
2022-08-07T22:33:37.051Z,21.52
2022-08-07T22:36:05.670Z,21.51
2022-08-07T22:38:31.997Z,21.43
2022-08-07T22:40:59.894Z,21.36
2022-08-07T22:43:31.566Z,21.32
2022-08-07T22:46:21.436Z,21.28
2022-08-07T22:48:55.503Z,21.22
2022-08-07T22:51:27.544Z,21.16
2022-08-07T22:54:08.171Z,21.10
2022-08-07T22:56:35.394Z,21.03
2022-08-07T22:59:02.096Z,20.97
2022-08-07T23:01:49.563Z,20.98
2022-08-07T23:04:16.936Z,20.95
2022-08-07T23:06:43.146Z,20.89
2022-08-07T23:10:05.914Z,20.80
2022-08-07T23:12:03.743Z,20.77
2022-08-07T23:14:30.554Z,20.71
2022-08-07T23:16:58.359Z,20.65
2022-08-07T23:19:47.922Z,20.59
2022-08-07T23:22:10.768Z,20.52
2022-08-07T23:24:38.778Z,20.47
2022-08-07T23:27:11.721Z,20.44
2022-08-07T23:29:43.877Z,20.30
2022-08-07T23:34:23.957Z,20.20
2022-08-07T23:35:10.247Z,20.12
2022-08-07T23:37:36.443Z,19.99
2022-08-07T23:40:22.604Z,19.93
2022-08-07T23:42:49.163Z,19.82
2022-08-07T23:45:33.143Z,19.72
2022-08-07T23:48:05.805Z,19.64
2022-08-07T23:50:31.952Z,19.49
2022-08-07T23:53:06.404Z,19.46
2022-08-07T23:55:53.045Z,19.34
2022-08-07T23:58:21.855Z,19.24
